createdAt,value
2023-02-28T00:00:58.270Z,-1.61
2023-02-28T00:05:01.930Z,-1.57
2023-02-28T00:09:03.904Z,-1.58
2023-02-28T00:13:07.294Z,-1.60
2023-02-28T00:17:09.311Z,-1.66
2023-02-28T00:21:11.413Z,-1.75
2023-02-28T00:25:16.430Z,-1.80
2023-02-28T00:29:18.423Z,-1.84
2023-02-28T00:33:20.509Z,-1.89
2023-02-28T00:37:23.815Z,-1.95
2023-02-28T00:41:25.864Z,-2.03
2023-02-28T00:45:28.007Z,-2.02
2023-02-28T00:49:30.011Z,-2.09
2023-02-28T00:53:33.530Z,-2.14
2023-02-28T00:57:35.711Z,-2.19
2023-02-28T01:01:37.761Z,-2.26
2023-02-28T01:05:39.776Z,-2.34
2023-02-28T01:09:42.381Z,-2.45
2023-02-28T01:13:46.418Z,-2.51
2023-02-28T01:17:48.402Z,-2.61
2023-02-28T01:21:50.388Z,-2.70
2023-02-28T01:25:52.672Z,-2.78
2023-02-28T01:29:54.728Z,-2.91
2023-02-28T01:33:56.726Z,-3.00
2023-02-28T01:38:06.853Z,-3.04
2023-02-28T01:42:14.622Z,-3.11
2023-02-28T01:46:17.385Z,-3.18
2023-02-28T01:50:23.964Z,-3.23
2023-02-28T01:54:29.633Z,-3.34
2023-02-28T01:58:31.687Z,-3.39
2023-02-28T02:02:34.087Z,-3.45
2023-02-28T02:06:42.717Z,-3.50
2023-02-28T02:10:57.885Z,-3.58
2023-02-28T02:15:09.551Z,-3.63
2023-02-28T02:19:32.870Z,-3.67
2023-02-28T02:23:55.656Z,-3.73
2023-02-28T02:28:31.690Z,-3.76
2023-02-28T02:32:54.351Z,-3.78
2023-02-28T02:37:09.941Z,-3.83
2023-02-28T02:41:20.466Z,-3.84
2023-02-28T02:45:36.974Z,-3.92
2023-02-28T02:49:44.463Z,-3.97
2023-02-28T02:54:02.872Z,-4.00
2023-02-28T02:58:08.892Z,-4.04
2023-02-28T03:02:15.707Z,-4.02
2023-02-28T03:06:17.720Z,-4.02
2023-02-28T03:10:41.233Z,-4.05
2023-02-28T03:14:52.471Z,-4.06
2023-02-28T03:19:36.408Z,-4.10
2023-02-28T03:24:11.116Z,-4.12
2023-02-28T03:28:23.256Z,-4.08
2023-02-28T03:32:36.749Z,-4.07
2023-02-28T03:36:45.516Z,-4.14
2023-02-28T03:40:52.581Z,-4.15
2023-02-28T03:45:05.518Z,-4.17
2023-02-28T03:49:23.433Z,-4.17
2023-02-28T03:53:39.465Z,-4.19
2023-02-28T03:57:57.632Z,-4.20
2023-02-28T04:02:00.161Z,-4.24
2023-02-28T04:06:02.846Z,-4.26
2023-02-28T04:10:05.835Z,-4.31
2023-02-28T04:14:09.505Z,-4.34
2023-02-28T04:18:11.562Z,-4.37
2023-02-28T04:22:14.522Z,-4.38
2023-02-28T04:26:16.611Z,-4.40
2023-02-28T04:30:18.712Z,-4.42
2023-02-28T04:34:22.163Z,-4.44
2023-02-28T04:38:24.200Z,-4.45
2023-02-28T04:42:26.192Z,-4.48
2023-02-28T04:46:29.118Z,-4.51
2023-02-28T04:50:31.110Z,-4.51
2023-02-28T04:54:33.106Z,-4.48
2023-02-28T04:58:35.596Z,-4.43
2023-02-28T05:02:37.863Z,-4.37
2023-02-28T05:06:40.151Z,-4.31
2023-02-28T05:10:42.143Z,-4.25
2023-02-28T05:14:45.129Z,-4.05
2023-02-28T05:18:47.748Z,-3.99
2023-02-28T05:22:50.701Z,-4.02
2023-02-28T05:26:54.782Z,-4.09
2023-02-28T05:30:56.766Z,-4.13
2023-02-28T05:34:58.771Z,-4.12
2023-02-28T05:39:00.866Z,-4.11
2023-02-28T05:43:02.863Z,-4.13
2023-02-28T05:47:04.916Z,-4.14
2023-02-28T05:51:08.387Z,-4.15
2023-02-28T05:55:10.683Z,-4.16
2023-02-28T05:59:14.092Z,-4.15
2023-02-28T06:03:16.194Z,-4.16
2023-02-28T06:07:18.576Z,-4.17
2023-02-28T06:11:21.333Z,-4.16
2023-02-28T06:15:23.442Z,-4.21
2023-02-28T06:19:28.404Z,-4.30
2023-02-28T06:23:30.671Z,-4.26
2023-02-28T06:27:34.473Z,-4.23
2023-02-28T06:31:36.662Z,-4.15
2023-02-28T06:35:39.243Z,-4.09
2023-02-28T06:39:41.321Z,-4.05
2023-02-28T06:43:44.121Z,-4.01
2023-02-28T06:47:46.226Z,-3.52
2023-02-28T06:51:48.339Z,-3.56
2023-02-28T06:55:50.351Z,-3.55
2023-02-28T06:59:52.347Z,-3.51
2023-02-28T07:03:55.814Z,-3.51
2023-02-28T07:07:57.995Z,-3.45
2023-02-28T07:12:01.466Z,-3.20
2023-02-28T07:16:09.894Z,-3.12
2023-02-28T07:20:12.674Z,-3.14
2023-02-28T07:24:16.695Z,-3.08
2023-02-28T07:28:19.061Z,-3.03
2023-02-28T07:32:22.899Z,-2.99
2023-02-28T07:36:25.001Z,-2.91
2023-02-28T07:40:27.936Z,-2.78
2023-02-28T07:44:30.090Z,-2.64
2023-02-28T07:48:32.622Z,-2.44
2023-02-28T07:52:34.726Z,-2.15
2023-02-28T07:56:36.762Z,-1.97
2023-02-28T08:00:39.316Z,-1.95
2023-02-28T08:04:41.882Z,-1.96
2023-02-28T08:08:45.345Z,-2.06
2023-02-28T08:12:47.366Z,-2.04
2023-02-28T08:16:49.675Z,-1.92
2023-02-28T08:20:51.851Z,-1.89
2023-02-28T08:24:53.917Z,-1.84
2023-02-28T08:28:57.275Z,-1.80
2023-02-28T08:32:59.831Z,-1.68
2023-02-28T08:37:01.880Z,-1.57
2023-02-28T08:41:09.791Z,-1.45
2023-02-28T08:45:12.839Z,-1.33
2023-02-28T08:49:14.877Z,-1.26
2023-02-28T08:53:16.936Z,-1.24
2023-02-28T08:57:18.965Z,-1.15
2023-02-28T09:01:23.488Z,-1.07
2023-02-28T09:05:25.576Z,-0.97
2023-02-28T09:09:27.574Z,-0.86
2023-02-28T09:13:30.736Z,-0.76
2023-02-28T09:17:32.733Z,-0.55
2023-02-28T09:21:34.759Z,-0.40
2023-02-28T09:25:37.410Z,-0.30
2023-02-28T09:29:39.486Z,-0.15
2023-02-28T09:33:42.219Z,-0.02
2023-02-28T09:37:44.322Z,-0.02
2023-02-28T09:41:51.536Z,0.17
2023-02-28T09:46:01.738Z,0.28
2023-02-28T09:50:19.072Z,0.28
2023-02-28T09:54:24.868Z,0.38
2023-02-28T09:58:45.889Z,0.32
2023-02-28T10:03:11.433Z,0.14
2023-02-28T10:07:24.577Z,0.11
2023-02-28T10:11:28.677Z,0.08
2023-02-28T10:15:33.350Z,0.41
2023-02-28T10:20:01.702Z,0.60
2023-02-28T10:28:18.810Z,0.49
2023-02-28T10:32:31.897Z,0.28
2023-02-28T10:36:36.176Z,0.50
2023-02-28T10:40:38.368Z,0.71
2023-02-28T10:44:40.444Z,0.95
2023-02-28T10:48:46.165Z,1.15
2023-02-28T10:52:48.178Z,1.41
2023-02-28T10:57:15.616Z,1.41
2023-02-28T11:01:20.659Z,1.38
2023-02-28T11:05:31.242Z,1.24
2023-02-28T11:09:39.997Z,1.20
2023-02-28T11:13:42.649Z,0.99
2023-02-28T11:17:44.817Z,1.16
2023-02-28T11:21:56.427Z,1.05
2023-02-28T11:26:02.147Z,1.34
2023-02-28T11:30:04.997Z,1.88
2023-02-28T11:34:26.141Z,2.39
2023-02-28T11:38:28.888Z,2.71
2023-02-28T11:42:40.240Z,2.75
2023-02-28T11:46:51.441Z,2.75
2023-02-28T11:51:19.190Z,2.51
2023-02-28T11:55:47.558Z,2.20
2023-02-28T12:00:08.417Z,1.88
2023-02-28T12:04:35.946Z,1.74
2023-02-28T12:09:02.986Z,1.78
2023-02-28T12:13:22.714Z,1.64
2023-02-28T12:17:42.817Z,1.62
2023-02-28T12:22:07.550Z,1.89
2023-02-28T12:26:21.142Z,1.86
2023-02-28T12:30:30.373Z,2.00
2023-02-28T12:34:37.472Z,1.91
2023-02-28T12:38:44.511Z,1.53
2023-02-28T12:42:52.320Z,1.62
2023-02-28T12:46:59.905Z,1.71
2023-02-28T12:51:03.505Z,2.00
2023-02-28T12:55:12.858Z,1.81
2023-02-28T12:59:33.293Z,1.77
2023-02-28T13:04:20.386Z,1.84
2023-02-28T13:08:51.160Z,1.90
2023-02-28T13:12:55.781Z,1.77
2023-02-28T13:17:10.027Z,1.84
2023-02-28T13:21:30.635Z,1.81
2023-02-28T13:25:38.997Z,1.87
2023-02-28T13:29:45.307Z,1.94
2023-02-28T13:33:49.023Z,2.18
2023-02-28T13:37:52.692Z,2.31
2023-02-28T13:41:54.709Z,2.43
2023-02-28T13:46:11.580Z,2.38
2023-02-28T13:50:33.976Z,2.26
2023-02-28T13:55:01.832Z,2.13
2023-02-28T13:59:20.604Z,2.21
2023-02-28T14:03:59.017Z,2.14
2023-02-28T14:08:09.163Z,2.19
2023-02-28T14:12:48.933Z,2.15
2023-02-28T14:16:51.258Z,2.18
2023-02-28T14:21:02.167Z,2.32
2023-02-28T14:25:27.063Z,2.22
2023-02-28T14:29:51.861Z,2.06
2023-02-28T14:34:19.889Z,2.03
2023-02-28T14:38:29.383Z,2.04
2023-02-28T14:42:35.597Z,2.07
2023-02-28T14:46:40.624Z,2.12
2023-02-28T14:50:50.507Z,2.18
2023-02-28T14:54:55.033Z,2.20
2023-02-28T14:58:57.915Z,2.40
2023-02-28T15:03:02.132Z,2.22
2023-02-28T15:07:16.492Z,2.30
2023-02-28T15:11:22.145Z,2.33
2023-02-28T15:15:51.633Z,2.26
2023-02-28T15:20:01.670Z,2.13
2023-02-28T15:24:24.761Z,2.18
2023-02-28T15:28:27.498Z,2.09
2023-02-28T15:32:32.190Z,2.04
2023-02-28T15:36:38.039Z,2.00
2023-02-28T15:40:45.117Z,1.92
2023-02-28T15:44:47.407Z,1.85
2023-02-28T15:48:54.200Z,1.90
2023-02-28T15:52:56.499Z,1.88
2023-02-28T15:57:07.164Z,1.73
2023-02-28T16:01:24.785Z,1.72
2023-02-28T16:05:32.903Z,1.70
2023-02-28T16:09:35.456Z,1.66
2023-02-28T16:13:38.085Z,1.57
2023-02-28T16:17:40.283Z,1.48
2023-02-28T16:21:42.339Z,1.44
2023-02-28T16:25:46.984Z,1.34
2023-02-28T16:29:49.549Z,1.28
2023-02-28T16:33:51.687Z,1.17
2023-02-28T16:37:54.529Z,1.07
2023-02-28T16:41:56.540Z,0.96
2023-02-28T16:46:01.315Z,0.88
2023-02-28T16:50:16.579Z,0.80
2023-02-28T16:54:18.550Z,0.72
2023-02-28T16:58:22.649Z,0.62
2023-02-28T17:02:24.823Z,0.53
2023-02-28T17:06:29.530Z,0.45
2023-02-28T17:10:31.821Z,0.36
2023-02-28T17:14:33.880Z,0.30
2023-02-28T17:18:35.956Z,0.29
2023-02-28T17:22:37.974Z,0.23
2023-02-28T17:26:41.862Z,0.08
2023-02-28T17:30:47.978Z,-0.01
2023-02-28T17:34:50.196Z,-0.10
2023-02-28T17:38:54.151Z,-0.18
2023-02-28T17:42:57.673Z,-0.24
2023-02-28T17:46:59.952Z,-0.27
2023-02-28T17:51:01.993Z,-0.30
2023-02-28T17:55:05.180Z,-0.36
2023-02-28T17:59:10.649Z,-0.49
2023-02-28T18:03:14.161Z,-0.55
2023-02-28T18:07:16.594Z,-0.63
2023-02-28T18:11:19.908Z,-0.67
2023-02-28T18:15:22.767Z,-0.72
2023-02-28T18:19:25.080Z,-0.77
2023-02-28T18:23:27.143Z,-0.84
2023-02-28T18:27:29.147Z,-0.87
2023-02-28T18:31:32.474Z,-0.92
2023-02-28T18:35:35.085Z,-0.97
2023-02-28T18:39:37.596Z,-1.02
2023-02-28T18:43:39.800Z,-1.07
2023-02-28T18:47:41.832Z,-1.13
2023-02-28T18:51:45.323Z,-1.18
2023-02-28T18:55:47.544Z,-1.21
2023-02-28T18:59:49.538Z,-1.22
2023-02-28T19:03:51.702Z,-1.29
2023-02-28T19:07:53.733Z,-1.36
2023-02-28T19:11:55.759Z,-1.39
2023-02-28T19:16:02.071Z,-1.43
2023-02-28T19:20:05.415Z,-1.45
2023-02-28T19:24:07.463Z,-1.51
2023-02-28T19:28:09.556Z,-1.57
2023-02-28T19:32:11.677Z,-1.62
2023-02-28T19:36:14.900Z,-1.65
2023-02-28T19:40:17.462Z,-1.65
2023-02-28T19:44:19.453Z,-1.75
2023-02-28T19:48:25.144Z,-1.79
2023-02-28T19:52:27.148Z,-1.85
2023-02-28T19:56:29.329Z,-1.90
2023-02-28T20:00:31.442Z,-1.94
2023-02-28T20:04:33.458Z,-1.98
2023-02-28T20:08:36.689Z,-2.00
2023-02-28T20:12:38.653Z,-2.04
2023-02-28T20:16:41.387Z,-2.08
2023-02-28T20:20:43.441Z,-2.07
2023-02-28T20:24:47.481Z,-2.03
2023-02-28T20:28:50.272Z,-2.00
2023-02-28T20:32:52.370Z,-2.00
2023-02-28T20:36:56.495Z,-1.98
2023-02-28T20:40:59.334Z,-1.96
2023-02-28T20:45:01.475Z,-1.98
2023-02-28T20:49:03.777Z,-1.95
2023-02-28T20:53:05.767Z,-2.04
2023-02-28T20:57:07.817Z,-2.05
2023-02-28T21:01:19.123Z,-2.06
2023-02-28T21:05:21.144Z,-2.00
2023-02-28T21:09:24.107Z,-1.91
2023-02-28T21:13:26.721Z,-1.94
2023-02-28T21:17:29.276Z,-1.97
2023-02-28T21:21:42.896Z,-1.95
2023-02-28T21:25:44.900Z,-1.92
2023-02-28T21:29:47.016Z,-1.91
2023-02-28T21:33:50.200Z,-1.89
2023-02-28T21:37:52.204Z,-1.95
2023-02-28T21:41:54.668Z,-2.07
2023-02-28T21:45:56.658Z,-2.10
2023-02-28T21:49:58.712Z,-2.09
2023-02-28T21:54:01.493Z,-2.10
2023-02-28T21:58:03.785Z,-2.14
2023-02-28T22:02:06.426Z,-2.18
2023-02-28T22:06:16.578Z,-2.27
2023-02-28T22:10:18.589Z,-2.29
2023-02-28T22:14:20.888Z,-2.35
2023-02-28T22:18:22.888Z,-2.41
2023-02-28T22:22:25.907Z,-2.45
2023-02-28T22:26:28.438Z,-2.47
2023-02-28T22:30:31.246Z,-2.43
2023-02-28T22:34:33.257Z,-2.42
2023-02-28T22:38:35.642Z,-2.39
2023-02-28T22:42:37.707Z,-2.37
2023-02-28T22:46:40.178Z,-2.31
2023-02-28T22:50:42.678Z,-2.30
2023-02-28T22:54:44.665Z,-2.30
2023-02-28T22:58:51.809Z,-2.30
2023-02-28T23:02:53.894Z,-2.34
2023-02-28T23:06:55.885Z,-2.39
2023-02-28T23:10:57.868Z,-2.36
2023-02-28T23:15:00.055Z,-2.37
2023-02-28T23:19:09.114Z,-2.44
2023-02-28T23:23:12.886Z,-2.47
2023-02-28T23:27:14.910Z,-2.55
2023-02-28T23:31:17.052Z,-2.66
2023-02-28T23:35:19.264Z,-2.73
2023-02-28T23:39:22.034Z,-2.76
2023-02-28T23:43:24.091Z,-2.85
2023-02-28T23:47:27.089Z,-2.93
2023-02-28T23:51:29.092Z,-3.03
2023-02-28T23:55:31.095Z,-2.98
2023-02-28T23:59:34.778Z,-2.81
